Latest Weather Observations for Pallamana

IDS60901

Issued at 9:01 am CST Tuesday 30 August 2016 (issued every 10 minutes, with the page automatically refreshed every 10 minutes)

About weather observations | Map of Adelaide area stations | Latest observations for Adelaide area | Other Formats
Station Details ID: 024584 Name: PALLAMANA AERODROME Lat: -35.06 Lon: 139.23 Height: 45.0 m
Data from the previous 72 hours. | See also: Recent months at Pallamana
Date/Time
CST
Temp
°C
App
Temp
°C
Dew
Point
°C
Rel
Hum
%
Delta-T
°C
Wind Press
QNH
hPa
Press
MSL
hPa
Rain since
9am
mm
Dir  Spd
km/h
Gust
km/h
Spd
kts
Gust
kts
30/09:00am 12.6 9.6 11.9 95 0.4 NNE 19 24 10 13 1013.2 1013.2 1.8
30/08:37am 12.3 9.5 11.5 95 0.4 NNE 17 20 9 11 1013.4 1013.4 1.6
30/08:30am 12.2 9.4 11.4 95 0.4 NNE 17 22 9 12 1013.3 1013.3 1.6
30/08:00am 12.1 9.2 11.1 94 0.5 NNE 17 20 9 11 1013.4 1013.4 1.4
30/07:30am 12.1 9.6 11.1 94 0.5 NNE 15 19 8 10 1013.2 1013.2 1.4
30/07:00am 12.0 9.1 11.0 94 0.5 NNE 17 22 9 12 1012.8 1012.8 1.4
30/06:30am 12.0 8.7 11.0 94 0.5 NNE 19 22 10 12 1012.9 1012.9 1.4
30/06:29am 12.0 8.7 11.0 94 0.5 NNE 19 22 10 12 1012.9 1012.9 1.4
30/06:00am 11.9 8.5 11.1 95 0.4 NNE 20 28 11 15 1012.9 1012.9 1.4
30/05:30am 11.7 8.4 10.9 95 0.4 NNE 19 28 10 15 1012.6 1012.6 1.4
30/05:00am 11.8 9.3 11.0 95 0.4 NE 15 19 8 10 1012.7 1012.7 1.4
30/04:30am 12.0 8.5 11.0 94 0.5 NNE 20 26 11 14 1013.4 1013.4 1.4
30/04:23am 12.0 8.5 11.0 94 0.5 NNE 20 26 11 14 1013.3 1013.3 1.4
30/04:09am 12.1 8.6 11.0 93 0.6 NNE 20 26 11 14 1013.2 1013.2 1.2
30/04:07am 12.0 8.6 11.2 95 0.4 N 20 26 11 14 1013.2 1013.2 1.2
30/04:00am 12.0 8.7 11.0 94 0.5 N 19 24 10 13 1013.3 1013.3 1.2
30/03:48am 12.1 9.2 11.1 94 0.5 N 17 22 9 12 1013.4 1013.4 1.0
30/03:30am 12.2 8.8 11.1 93 0.6 N 20 28 11 15 1013.4 1013.4 0.6
30/03:00am 12.3 8.1 11.0 92 0.7 N 24 30 13 16 1013.1 1013.1 0.6
30/02:30am 12.6 6.8 10.9 89 0.9 N 32 41 17 22 1014.2 1014.2 0.6
30/02:29am 12.6 6.6 10.9 89 0.9 N 33 41 18 22 1014.2 1014.2 0.6
30/02:15am 12.5 7.5 11.0 90 0.8 N 28 46 15 25 1014.1 1014.1 0.6
30/02:00am 12.5 7.5 11.0 90 0.8 N 28 39 15 21 1013.9 1013.9 0.6
30/01:30am 12.4 8.2 11.1 92 0.7 N 24 32 13 17 1013.7 1013.7 0.6
30/01:00am 12.5 7.9 11.0 90 0.8 N 26 35 14 19 1014.2 1014.2 0.6
30/12:30am 12.9 7.9 10.8 87 1.1 N 28 37 15 20 1014.3 1014.3 0.4
30/12:14am 13.0 8.6 10.5 85 1.3 N 24 32 13 17 1014.1 1014.1 0.4
30/12:00am 12.9 8.9 10.4 85 1.3 NNE 22 30 12 16 1014.0 1014.0 0.4
 
Date/Time
CST
Temp
°C
App
Temp
°C
Dew
Point
°C
Rel
Hum
%
Delta-T
°C
Wind Press
QNH
hPa
Press
MSL
hPa
Rain since
9am
mm
Dir  Spd
km/h
Gust
km/h
Spd
kts
Gust
kts
29/11:30pm 13.2 7.9 9.9 80 1.7 NNE 28 35 15 19 1014.1 1014.1 0.4
29/11:00pm 14.1 8.1 8.8 70 2.7 NNE 30 44 16 24 1014.6 1014.6 0.4
29/10:30pm 14.0 8.4 8.9 71 2.6 NNE 28 35 15 19 1014.7 1014.7 0.4
29/10:00pm 14.1 8.6 9.0 71 2.6 N 28 39 15 21 1014.7 1014.7 0.4
29/09:30pm 13.5 8.2 9.8 78 1.9 NNE 28 39 15 21 1014.0 1014.0 0.4
29/09:00pm 13.4 9.0 10.5 82 1.5 NNE 24 32 13 17 1014.7 1014.7 0.4
29/08:30pm 14.2 8.2 10.2 77 2.1 NNE 32 37 17 20 1015.3 1015.3 0.4
29/08:00pm 14.7 8.9 9.5 71 2.7 NNE 30 39 16 21 1015.1 1015.1 0.4
29/07:30pm 15.1 9.2 9.0 67 3.1 NNE 30 39 16 21 1014.8 1014.8 0.4
29/07:00pm 14.2 10.6 10.4 78 2.0 N 20 26 11 14 1014.6 1014.6 0.4
29/06:30pm 14.5 10.5 10.3 76 2.2 NNE 22 28 12 15 1014.2 1014.2 0.4
29/06:00pm 14.5 11.0 10.3 76 2.2 N 19 24 10 13 1014.4 1014.4 0.4
29/05:30pm 15.3 10.0 9.7 69 2.9 N 28 35 15 19 1014.2 1014.2 0.4
29/05:00pm 16.8 12.3 8.6 58 4.2 N 22 26 12 14 1013.1 1013.1 0.0
29/04:30pm 19.5 12.6 4.6 37 7.2 NNE 30 41 16 22 1012.5 1012.5 0.0
29/04:00pm 20.4 13.6 3.3 32 8.1 NNE 28 41 15 22 1012.4 1012.4 0.0
29/03:30pm 20.3 14.6 4.7 36 7.6 NE 24 35 13 19 1012.2 1012.2 0.0
29/03:00pm 19.9 12.3 4.0 35 7.6 NNE 33 43 18 23 1013.0 1013.0 0.0
29/02:30pm 20.7 14.3 5.0 35 7.7 NE 28 48 15 26 1013.0 1013.0 0.0
29/02:00pm 19.8 12.5 5.6 39 7.0 NE 33 44 18 24 1013.4 1013.4 0.0
29/01:30pm 19.1 12.3 6.8 44 6.2 NNE 32 43 17 23 1014.0 1014.0 0.0
29/01:00pm 19.0 12.0 5.8 42 6.5 NNE 32 43 17 23 1014.6 1014.6 0.0
29/12:30pm 16.7 11.7 6.5 51 5.0 NNE 22 28 12 15 1015.2 1015.2 0.0
29/12:00pm 16.0 11.4 6.6 53 4.6 NNE 20 26 11 14 1015.6 1015.6 0.0
29/11:30am 14.6 8.5 5.0 52 4.5 NNE 26 33 14 18 1015.9 1015.9 0.0
29/11:00am 14.3 8.3 5.1 54 4.3 NNE 26 35 14 19 1016.2 1016.2 0.0
29/10:30am 14.3 9.1 5.7 56 4.1 NNE 22 32 12 17 1016.7 1016.7 0.0
29/10:00am 13.4 8.2 5.5 59 3.7 NNE 22 33 12 18 1017.2 1017.2 0.0
29/09:30am 12.8 8.0 5.8 62 3.3 NNE 20 26 11 14 1017.5 1017.5 0.0
29/09:00am 12.2 8.3 5.5 63 3.1 NNE 15 19 8 10 1017.7 1017.7 0.4
29/08:30am 11.6 8.8 6.8 72 2.3 NNE 11 15 6 8 1017.5 1017.5 0.4
29/08:00am 10.5 8.9 7.8 83 1.3 NE 6 9 3 5 1016.8 1016.8 0.4
29/07:30am 9.8 8.5 7.7 87 1.0 N 4 7 2 4 1016.9 1016.9 0.4
29/07:00am 9.7 7.9 7.8 88 0.9 N 7 11 4 6 1016.9 1016.9 0.2
29/06:30am 9.8 8.0 7.3 84 1.2 N 6 7 3 4 1017.0 1017.0 0.2
29/06:00am 9.8 7.9 6.8 81 1.4 N 6 7 3 4 1016.6 1016.6 0.2
29/05:30am 9.9 6.9 6.2 78 1.7 N 11 13 6 7 1016.3 1016.3 0.2
29/05:00am 9.9 6.9 6.2 78 1.7 N 11 13 6 7 1016.1 1016.1 0.2
29/04:30am 10.4 9.0 5.6 72 2.2 NNE 2 7 1 4 1016.0 1016.0 0.2
29/04:00am 10.7 8.5 6.0 73 2.2 NNE 7 11 4 6 1016.0 1016.0 0.0
29/03:30am 11.8 7.9 3.2 55 3.8 NNE 13 17 7 9 1016.3 1016.3 0.0
29/03:00am 12.5 7.7 2.4 50 4.4 NNE 17 20 9 11 1016.3 1016.3 0.0
29/02:30am 13.4 8.3 0.6 41 5.4 N 17 20 9 11 1016.8 1016.8 0.0
29/02:00am 12.1 8.0 2.1 50 4.3 N 13 15 7 8 1016.8 1016.8 0.0
29/01:30am 12.5 7.9 1.5 47 4.7 N 15 19 8 10 1016.7 1016.7 0.0
29/01:00am 12.0 7.4 1.4 48 4.5 N 15 17 8 9 1016.6 1016.6 0.0
29/12:30am 11.0 6.9 2.1 54 3.8 N 13 15 7 8 1016.6 1016.6 0.0
29/12:00am 11.0 6.1 1.8 53 3.9 N 17 19 9 10 1016.5 1016.5 0.0
 
Date/Time
CST
Temp
°C
App
Temp
°C
Dew
Point
°C
Rel
Hum
%
Delta-T
°C
Wind Press
QNH
hPa
Press
MSL
hPa
Rain since
9am
mm
Dir  Spd
km/h
Gust
km/h
Spd
kts
Gust
kts
28/11:30pm 10.2 5.6 1.3 54 3.7 N 15 19 8 10 1016.8 1016.8 0.0
28/11:00pm 11.4 6.4 1.4 50 4.2 N 17 20 9 11 1016.5 1016.5 0.0
28/10:30pm 10.5 5.6 2.0 55 3.6 N 17 26 9 14 1016.5 1016.5 0.0
28/10:00pm 12.1 6.8 1.8 49 4.4 N 19 20 10 11 1016.6 1016.6 0.0
28/09:30pm 11.1 6.7 2.5 55 3.7 N 15 17 8 9 1016.7 1016.7 0.0
28/09:00pm 10.8 6.8 3.0 58 3.4 N 13 15 7 8 1016.5 1016.5 0.0
28/08:30pm 11.3 7.6 2.2 53 3.9 N 11 13 6 7 1016.5 1016.5 0.0
28/08:00pm 10.9 7.9 2.2 55 3.7 N 7 11 4 6 1016.2 1016.2 0.0
28/07:30pm 11.4 6.9 2.0 52 4.0 N 15 17 8 9 1016.1 1016.1 0.0
28/07:00pm 11.4 7.3 2.0 52 4.0 NNE 13 17 7 9 1015.9 1015.9 0.0
28/06:30pm 12.2 8.5 2.3 51 4.3 NE 11 15 6 8 1015.4 1015.4 0.0
28/06:00pm 13.9 9.5 2.6 46 5.0 NE 15 17 8 9 1015.1 1015.1 0.0
28/05:30pm 17.3 11.3 1.0 33 7.2 NNE 22 28 12 15 1014.6 1014.6 0.0
28/05:00pm 19.0 11.3 0.1 28 8.3 NNE 30 39 16 21 1014.2 1014.2 0.0
28/04:30pm 19.5 11.9 0.3 27 8.5 NE 30 39 16 21 1014.5 1014.5 0.0
28/04:00pm 20.1 12.1 0.7 27 8.7 NE 32 39 17 21 1014.7 1014.7 0.0
28/03:30pm 20.4 13.2 0.6 26 8.9 NNE 28 35 15 19 1014.6 1014.6 0.0
28/03:00pm 21.1 14.0 1.2 26 9.1 N 28 39 15 21 1014.7 1014.7 0.0
28/02:30pm 21.2 14.2 1.7 27 9.0 N 28 37 15 20 1015.0 1015.0 0.0
28/02:00pm 20.0 13.0 2.0 30 8.3 NNE 28 37 15 20 1015.3 1015.3 0.0
28/01:30pm 20.5 13.5 2.2 29 8.5 NNE 28 41 15 22 1015.8 1015.8 0.0
28/01:00pm 20.0 11.8 2.9 32 8.0 NNE 35 48 19 26 1016.4 1016.4 0.0
28/12:30pm 19.8 12.0 1.9 30 8.2 N 32 46 17 25 1016.8 1016.8 0.0
28/12:00pm 20.0 11.6 1.6 29 8.4 N 35 44 19 24 1017.2 1017.2 0.0
28/11:30am 19.0 10.9 0.8 29 8.1 N 33 44 18 24 1017.5 1017.5 0.0
28/11:00am 18.2 10.2 1.8 33 7.4 N 33 43 18 23 1018.0 1018.0 0.0
28/10:30am 17.6 10.4 3.1 38 6.7 N 30 37 16 20 1018.5 1018.5 0.0
28/10:00am 16.5 10.5 3.2 41 6.1 N 24 35 13 19 1018.7 1018.7 0.0
28/09:30am 15.0 9.4 3.6 46 5.2 N 22 28 12 15 1019.0 1019.0 0.0
28/09:00am 12.5 8.0 4.3 57 3.7 NNE 17 20 9 11 1018.9 1018.9 0.0
28/08:30am 10.8 6.5 5.1 68 2.6 NNE 17 19 9 10 1019.2 1019.2 0.0
28/08:00am 7.1 4.8 4.6 84 1.1 N 6 7 3 4 1019.2 1019.2 0.0
28/07:30am 5.0 2.4 3.3 89 0.7 N 6 7 3 4 1019.1 1019.1 0.0
28/07:00am 3.5 0.6 1.7 88 0.7 N 6 7 3 4 1018.8 1018.8 0.0
28/06:30am 1.9 -0.1 0.0 87 0.7 CALM 0 4 0 2 1018.7 1018.7 0.0
28/06:00am 4.2 1.4 2.2 87 0.8 NNE 6 7 3 4 1018.5 1018.5 0.0
28/05:30am 4.3 1.5 2.0 85 0.9 ENE 6 7 3 4 1018.4 1018.4 0.0
28/05:00am 4.8 2.5 2.8 87 0.8 E 4 6 2 3 1018.1 1018.1 0.0
28/04:30am 3.8 1.0 2.0 88 0.7 SE 6 9 3 5 1018.1 1018.1 0.0
28/04:00am 4.2 2.6 2.2 87 0.8 CALM 0 0 0 0 1018.0 1018.0 0.0
28/03:30am 4.9 3.1 3.2 89 0.7 ESE 2 6 1 3 1018.2 1018.2 0.0
28/03:00am 4.5 1.8 2.8 89 0.7 E 6 9 3 5 1018.5 1018.5 0.0
28/02:30am 5.0 2.2 3.1 87 0.8 N 7 9 4 5 1018.6 1018.6 0.0
28/02:00am 5.2 3.4 3.3 87 0.8 S 2 7 1 4 1019.0 1019.0 0.0
28/01:30am 4.9 3.5 3.5 91 0.6 CALM 0 0 0 0 1018.8 1018.8 0.0
28/01:00am 4.2 2.6 2.2 87 0.8 CALM 0 0 0 0 1019.0 1019.0 0.0
28/12:30am 5.7 4.3 3.8 87 0.8 CALM 0 0 0 0 1018.9 1018.9 0.0
28/12:00am 5.0 3.5 2.8 86 0.9 CALM 0 0 0 0 1018.7 1018.7 0.0
 
Date/Time
CST
Temp
°C
App
Temp
°C
Dew
Point
°C
Rel
Hum
%
Delta-T
°C
Wind Press
QNH
hPa
Press
MSL
hPa
Rain since
9am
mm
Dir  Spd
km/h
Gust
km/h
Spd
kts
Gust
kts
27/11:30pm 6.9 5.6 3.9 81 1.3 CALM 0 0 0 0 1018.9 1018.9 0.0
27/11:00pm 7.8 6.1 4.1 77 1.6 N 2 7 1 4 1019.0 1019.0 0.0
27/10:30pm 7.9 5.4 4.7 80 1.4 N 7 9 4 5 1019.1 1019.1 0.0
27/10:00pm 8.1 5.9 5.4 83 1.2 N 6 7 3 4 1019.2 1019.2 0.0
27/09:30pm 7.5 5.0 5.0 84 1.1 NNE 7 9 4 5 1019.5 1019.5 0.0
27/09:00pm 7.7 5.0 5.7 87 0.9 NNW 9 11 5 6 1019.3 1019.3 0.0
27/08:30pm 6.8 4.5 5.0 88 0.8 N 6 9 3 5 1019.9 1019.9 0.0
27/08:00pm 8.3 5.8 4.9 79 1.5 NW 7 9 4 5 1019.7 1019.7 0.0
27/07:30pm 8.4 6.1 5.5 82 1.3 N 7 9 4 5 1019.7 1019.7 0.0
27/07:00pm 10.1 9.0 6.9 80 1.5 NNW 2 7 1 4 1019.4 1019.4 0.0
27/06:30pm 12.0 9.4 6.3 68 2.7 NNW 9 9 5 5 1019.3 1019.3 0.0
27/06:00pm 12.8 10.6 6.3 64 3.1 NNW 7 9 4 5 1018.9 1018.9 0.0
27/05:30pm 13.1 11.1 6.9 66 3.0 N 7 9 4 5 1018.7 1018.7 0.0
27/05:00pm 13.8 10.8 6.0 59 3.7 N 11 13 6 7 1018.6 1018.6 0.0
27/04:30pm 16.0 12.1 3.6 43 5.7 NNW 13 22 7 12 1018.9 1018.9 0.0
27/04:00pm 16.7 11.8 1.9 37 6.6 NNW 17 24 9 13 1018.7 1018.7 0.0
27/03:30pm 16.2 10.9 2.1 38 6.3 NNW 19 24 10 13 1018.9 1018.9 0.0
27/03:00pm 16.9 11.3 1.3 35 6.9 NW 20 28 11 15 1019.0 1019.0 0.0
27/02:30pm 17.2 11.8 1.4 34 7.0 NW 19 32 10 17 1019.2 1019.2 0.0
27/02:00pm 17.7 12.0 0.6 31 7.5 WNW 20 32 11 17 1019.7 1019.7 0.0
27/01:30pm 16.8 10.6 -0.3 31 7.3 NW 22 33 12 18 1019.9 1019.9 0.0
27/01:00pm 16.7 10.2 0.6 33 7.0 NW 24 33 13 18 1020.3 1020.3 0.0
27/12:30pm 16.0 9.5 0.0 33 6.8 NW 24 32 13 17 1020.7 1020.7 0.0
27/12:00pm 16.8 10.9 1.4 35 6.8 NNW 22 32 12 17 1021.2 1021.2 0.0
27/11:30am 15.9 10.2 4.9 48 5.2 N 24 32 13 17 1021.7 1021.8 0.0
27/11:00am 15.9 10.6 5.1 48 5.1 NNE 22 30 12 16 1021.9 1022.0 0.0
27/10:30am 14.9 9.7 5.4 53 4.5 N 22 28 12 15 1022.3 1022.4 0.0
27/10:00am 13.9 8.3 5.4 56 4.0 N 24 30 13 16 1022.6 1022.7 0.0
27/09:30am 11.5 7.3 5.7 67 2.7 NNE 17 22 9 12 1023.0 1023.1 0.0

Latest Capital City Observations: Canberra | Sydney | Melbourne | Brisbane | Adelaide | Perth | Hobart | Darwin

Other Formats:

Comma delimited format used in spreadsheet applications
http://www.bom.gov.au/fwo/IDS60901/IDS60901.95818.axf

JavaScript Object Notation format (JSON) in row-major order
http://www.bom.gov.au/fwo/IDS60901/IDS60901.95818.json